16:05
Airports
History
Links
Donate
Help keep this website running!
PayPal
Bitcoin
This page is community maintained. The information is intended for PC simulator navigation or reference.
Always use approved charts for navigation.
UG23
GUDAUTA
GUDAUTA (UG23)
Gudauta, Abkhazia, Georgia
(U)
Lat/Lng:43° 6' 14.56" N / 40° 34' 45.38" E
43.104045 / 40.579273
Elevation:79'ft / 24mMSL
ID / ICAO:UG23
Runways:1
Longest:15-33
Concrete 2,977m / 9,768ft
Nearby Weather15:30 GMT 2017-09-21
Nearby weather at URSS, Sochi located 39.7 nautical miles from UG23
Altimeter: 29.68
Visibility: 6.2 statute miles
Wind: 3.9 knots (from 300°)
Temp: 26°c / 79°f
Humidity: 78.7%

METAR: URSS 211530Z 30002MPS 9999 FEW100 26/22 Q1005 R02/090070 R06/090070 NOSIG RMK R06/31004G09MPS QFE752

(Powered by phpweather)
Nearby VORs <50NM
Nearby NDBs
Runway 15 / 33
Dimensions:2977.3 x 50m 9768' x 164'ft
Surface:Concrete
Runway 15 [A]Runway 33 [B]
Heading:151°TH 331°TH
Lat:
Lng:
43° 6' 56.96"N
40° 34' 13.55"E
43° 5' 32.16"N
40° 35' 17.21"E
User Notes and Comments
43° 6' 14.56" N / 40° 34' 45.38" E
Distance To
Airport ID:
Nearby Airports
(U) SUKHUMI DRANDA 32.5 NM
UG29 ESE 121°
(C) Sochi 39.7 NM
URSS ( WX ) NW 306°
(C) BATUMI 115.7 NM
UGSB SSE 153°
(C) KOPITNARI 116.0 NM
UGKO ESE 123°
(U) KUTAISI WEST 119.5 NM
UG26 ESE 119°
(C) MINERALNYYE VODY 147.1 NM
URMM ( WX ) ENE 58°
(C) PASHKOVSKIY 150.5 NM
URKK NNW 332°
VFR Chart
Flight Planning at SkyVector.com